Time;durP1;ratioP1;P1;durP2;ratioP2;P2;SDS_P1;SDS_P2;PMS_P1;PMS_P2;Temp;Humidity;BMP_temperature;BMP_pressure;BME280_temperature;BME280_humidity;BME280_pressure;Samples;Min_cycle;Max_cycle;Signal;HPM_P1;HPM_P2
2023/11/02 00:00:09;;;;;;;2.42;0.40;;;;;;;12.34;100.00;98833.00;5162595;28;20026;-78
2023/11/02 00:02:39;;;;;;;1.80;0.47;;;;;;;12.13;100.00;98839.69;5163588;28;20117;-78
2023/11/02 00:05:45;;;;;;;0.47;0.30;;;;;;;12.15;100.00;98840.44;5168102;28;20120;-77
2023/11/02 00:08:16;;;;;;;1.38;0.40;;;;;;;11.97;100.00;98835.66;5165521;28;20108;-77
2023/11/02 00:10:46;;;;;;;3.35;0.45;;;;;;;11.94;100.00;98818.34;5162137;28;20497;-75
2023/11/02 00:13:22;;;;;;;1.55;0.50;;;;;;;11.85;100.00;98824.25;5164169;28;20103;-78
2023/11/02 00:15:53;;;;;;;2.63;0.50;;;;;;;11.81;100.00;98820.13;5160244;28;20511;-77
2023/11/02 00:18:25;;;;;;;4.10;0.57;;;;;;;11.73;100.00;98809.38;5168783;28;20506;-77
2023/11/02 00:20:56;;;;;;;2.65;0.50;;;;;;;11.63;100.00;98810.09;5169714;28;20027;-76
2023/11/02 00:23:39;;;;;;;1.50;0.50;;;;;;;11.54;100.00;98808.06;5169593;28;20022;-77
2023/11/02 00:26:09;;;;;;;1.85;0.40;;;;;;;11.43;100.00;98811.41;5166156;28;20388;-76
2023/11/02 00:28:39;;;;;;;1.98;0.40;;;;;;;11.31;100.00;98801.75;5164233;28;20045;-76
2023/11/02 00:31:10;;;;;;;3.03;0.60;;;;;;;11.29;100.00;98808.88;5166907;28;20492;-74
2023/11/02 00:33:40;;;;;;;5.60;0.60;;;;;;;11.18;100.00;98813.13;5163409;28;20109;-76
2023/11/02 00:36:11;;;;;;;3.30;0.40;;;;;;;11.12;100.00;98813.56;5165242;28;20030;-77
2023/11/02 00:38:41;;;;;;;3.72;0.55;;;;;;;11.10;100.00;98805.78;5164262;28;20508;-78
2023/11/02 00:41:12;;;;;;;2.55;0.40;;;;;;;11.00;100.00;98803.06;5167588;28;20064;-75
2023/11/02 00:43:42;;;;;;;2.72;0.45;;;;;;;11.00;100.00;98803.88;5167971;28;20117;-77
2023/11/02 00:46:13;;;;;;;7.00;1.67;;;;;;;10.82;100.00;98802.47;5170861;28;20033;-77
2023/11/02 00:48:44;;;;;;;2.67;0.60;;;;;;;10.76;100.00;98799.41;5167042;28;20072;-78
2023/11/02 00:51:23;;;;;;;2.63;0.50;;;;;;;10.70;100.00;98784.16;5160371;28;20109;-78
2023/11/02 00:54:00;;;;;;;10.93;1.40;;;;;;;10.73;100.00;98773.50;5166215;28;20080;-77
2023/11/02 00:56:34;;;;;;;3.00;0.52;;;;;;;10.68;100.00;98781.63;5159067;28;20510;-74
2023/11/02 00:59:05;;;;;;;6.45;0.57;;;;;;;10.59;100.00;98778.75;5169104;28;20038;-78
2023/11/02 01:01:36;;;;;;;1.83;0.30;;;;;;;10.49;100.00;98782.91;5171835;28;20092;-78
2023/11/02 01:04:41;;;;;;;2.25;0.43;;;;;;;10.48;100.00;98770.78;5163208;28;20022;-76
2023/11/02 01:07:13;;;;;;;3.97;0.60;;;;;;;10.40;100.00;98776.50;5164302;28;20061;-77
2023/11/02 01:09:46;;;;;;;4.22;0.60;;;;;;;10.41;100.00;98772.97;5167179;28;21068;-76
2023/11/02 01:12:37;;;;;;;2.05;0.60;;;;;;;10.43;100.00;98765.88;5167198;28;20034;-77
2023/11/02 01:15:28;;;;;;;0.80;0.30;;;;;;;10.49;100.00;98764.63;5165385;28;20052;-77
2023/11/02 01:17:58;;;;;;;5.20;0.50;;;;;;;10.40;100.00;98754.75;5166321;28;20026;-78
2023/11/02 01:20:56;;;;;;;3.75;0.60;;;;;;;10.41;100.00;98756.44;5161257;28;20037;-75
2023/11/02 01:23:30;;;;;;;6.03;0.50;;;;;;;10.27;100.00;98753.84;5167375;28;20034;-74
2023/11/02 01:26:01;;;;;;;4.68;0.50;;;;;;;10.26;100.00;98746.97;5161155;28;20032;-78
2023/11/02 01:28:52;;;;;;;2.08;0.47;;;;;;;10.13;100.00;98746.91;5168951;28;20018;-76
2023/11/02 01:31:22;;;;;;;2.28;0.50;;;;;;;10.14;100.00;98738.13;5164475;28;20036;-77
2023/11/02 01:34:03;;;;;;;1.98;0.50;;;;;;;10.16;100.00;98738.06;5169339;28;20038;-77
2023/11/02 01:36:39;;;;;;;5.47;0.50;;;;;;;10.07;100.00;98749.06;5165139;28;20436;-77
2023/11/02 01:39:15;;;;;;;2.15;0.73;;;;;;;10.04;100.00;98751.88;5159010;28;20039;-77
2023/11/02 01:42:10;;;;;;;2.50;0.45;;;;;;;10.10;100.00;98735.81;5164592;28;20088;-73
2023/11/02 01:44:47;;;;;;;3.75;0.40;;;;;;;10.01;100.00;98731.16;5136005;28;20042;-78
2023/11/02 01:47:34;;;;;;;4.07;0.45;;;;;;;9.92;100.00;98726.50;5163849;28;20036;-77
2023/11/02 01:50:11;;;;;;;5.32;0.50;;;;;;;9.92;100.00;98713.44;5165311;28;20030;-78
2023/11/02 01:52:51;;;;;;;7.03;0.50;;;;;;;9.80;100.00;98712.44;5165126;28;20028;-77
2023/11/02 01:55:35;;;;;;;5.72;0.60;;;;;;;9.75;100.00;98708.44;5172072;28;20498;-77
2023/11/02 01:58:28;;;;;;;5.50;0.40;;;;;;;9.64;100.00;98705.69;5166036;28;20423;-77
2023/11/02 02:01:17;;;;;;;4.22;0.80;;;;;;;9.68;100.00;98686.28;5164819;28;20353;-77
2023/11/02 02:04:15;;;;;;;3.90;0.73;;;;;;;9.76;100.00;98692.72;5168760;28;20033;-78
2023/11/02 02:07:10;;;;;;;5.10;0.60;;;;;;;9.73;100.00;98692.06;5169259;28;20054;-74
2023/11/02 02:10:07;;;;;;;3.50;0.45;;;;;;;9.55;100.00;98674.94;5167787;28;20057;-77
2023/11/02 02:12:59;;;;;;;7.10;0.60;;;;;;;9.55;100.00;98680.16;5165472;28;20022;-76
2023/11/02 02:15:56;;;;;;;2.95;0.60;;;;;;;9.47;100.00;98679.81;5162196;28;20045;-78
2023/11/02 02:18:44;;;;;;;2.42;0.38;;;;;;;9.36;100.00;98674.41;5163982;28;20483;-77
2023/11/02 02:21:34;;;;;;;1.88;0.50;;;;;;;9.34;100.00;98671.88;5167690;28;20171;-76
2023/11/02 02:24:38;;;;;;;1.38;0.52;;;;;;;9.30;100.00;98659.97;5165823;28;20120;-76
2023/11/02 02:27:34;;;;;;;3.47;0.50;;;;;;;9.36;100.00;98659.63;5169909;28;20025;-77
2023/11/02 02:30:35;;;;;;;5.80;0.57;;;;;;;9.37;100.00;98656.06;5167353;28;20033;-77
2023/11/02 02:33:37;;;;;;;3.00;0.70;;;;;;;9.45;100.00;98642.56;5160872;28;20039;-78
2023/11/02 02:36:19;;;;;;;3.08;0.50;;;;;;;9.60;100.00;98652.88;5167747;28;20101;-78
2023/11/02 02:38:54;;;;;;;8.52;0.60;;;;;;;9.62;100.00;98644.97;5165547;28;20025;-77
2023/11/02 02:41:29;;;;;;;5.38;0.60;;;;;;;9.63;100.00;98641.41;5168883;28;20029;-75
2023/11/02 02:44:01;;;;;;;2.15;0.73;;;;;;;9.58;100.00;98633.03;5163891;28;20456;-78
2023/11/02 02:46:32;;;;;;;5.43;0.90;;;;;;;9.45;100.00;98619.09;5167797;28;20112;-77
2023/11/02 02:49:03;;;;;;;2.35;0.57;;;;;;;9.42;100.00;98612.28;5169183;28;20022;-77
2023/11/02 02:51:36;;;;;;;1.30;0.40;;;;;;;9.38;100.00;98605.59;5166851;28;20029;-78
2023/11/02 02:54:08;;;;;;;1.40;0.50;;;;;;;9.35;100.00;98604.94;5168316;28;20510;-76
2023/11/02 02:56:45;;;;;;;2.28;0.60;;;;;;;9.34;100.00;98598.88;5159476;28;20037;-75
2023/11/02 02:59:17;;;;;;;3.83;0.80;;;;;;;9.36;100.00;98602.25;5167357;28;20096;-78
2023/11/02 03:01:48;;;;;;;1.42;0.52;;;;;;;9.46;100.00;98607.75;5165639;28;20407;-77
2023/11/02 03:04:20;;;;;;;5.28;1.08;;;;;;;9.54;100.00;98597.66;5169906;28;20045;-77
2023/11/02 03:06:57;;;;;;;2.75;0.63;;;;;;;9.53;100.00;98589.00;5168096;28;20345;-77
2023/11/02 03:09:34;;;;;;;2.75;0.52;;;;;;;9.56;100.00;98583.59;5168105;28;20034;-77
2023/11/02 03:12:07;;;;;;;2.78;0.60;;;;;;;9.65;100.00;98582.19;5160958;28;20507;-76
2023/11/02 03:14:40;;;;;;;6.10;0.55;;;;;;;9.65;100.00;98580.41;5167824;28;20041;-77
2023/11/02 03:17:29;;;;;;;6.30;1.02;;;;;;;9.67;100.00;98580.31;5169502;28;20058;-76
2023/11/02 03:19:59;;;;;;;2.30;0.98;;;;;;;9.72;100.00;98570.41;5167734;28;20593;-76
2023/11/02 03:22:30;;;;;;;2.55;0.73;;;;;;;9.61;100.00;98576.31;5170670;28;20026;-77
2023/11/02 03:25:18;;;;;;;1.48;0.38;;;;;;;9.57;100.00;98574.00;5168002;28;20026;-78
2023/11/02 03:28:04;;;;;;;1.65;0.70;;;;;;;9.46;100.00;98568.63;5167515;28;20034;-77
2023/11/02 03:30:54;;;;;;;4.70;0.93;;;;;;;9.54;100.00;98559.41;5162300;28;20483;-76
2023/11/02 03:33:46;;;;;;;1.98;0.57;;;;;;;9.52;100.00;98547.38;5166087;28;20050;-74
2023/11/02 03:36:36;;;;;;;1.08;0.60;;;;;;;9.57;100.00;98550.53;5168470;28;20042;-76
2023/11/02 03:39:28;;;;;;;0.93;0.57;;;;;;;9.53;100.00;98546.44;5163627;28;20022;-77
2023/11/02 03:42:06;;;;;;;2.92;0.50;;;;;;;9.64;100.00;98533.56;5166779;28;20030;-77
2023/11/02 03:45:06;;;;;;;1.95;0.50;;;;;;;9.62;100.00;98535.44;5169674;28;20396;-77
2023/11/02 03:48:02;;;;;;;0.82;0.30;;;;;;;9.67;100.00;98526.38;5157282;28;20022;-77
2023/11/02 03:50:42;;;;;;;1.80;0.40;;;;;;;9.64;100.00;98528.34;5163911;28;20514;-78
2023/11/02 03:53:51;;;;;;;3.40;0.50;;;;;;;9.65;100.00;98515.19;5167496;28;20443;-79
2023/11/02 03:56:59;;;;;;;1.95;0.55;;;;;;;9.66;100.00;98508.22;5168971;28;20037;-76
2023/11/02 03:59:43;;;;;;;1.48;0.55;;;;;;;9.66;100.00;98503.00;5159344;28;20036;-76
2023/11/02 04:02:29;;;;;;;5.57;0.57;;;;;;;9.69;100.00;98500.19;5165802;28;20038;-76
2023/11/02 04:05:19;;;;;;;3.78;0.43;;;;;;;9.68;100.00;98493.31;5163357;28;20045;-76
2023/11/02 04:07:58;;;;;;;2.60;0.50;;;;;;;9.66;100.00;98484.75;5162865;28;20026;-77
2023/11/02 04:10:31;;;;;;;3.03;0.50;;;;;;;9.75;100.00;98466.72;5164494;28;20111;-76
2023/11/02 04:13:04;;;;;;;2.53;0.70;;;;;;;9.84;100.00;98452.25;5164411;28;20116;-77
2023/11/02 04:15:34;;;;;;;1.98;0.50;;;;;;;9.89;100.00;98448.41;5166318;28;20028;-76
2023/11/02 04:18:05;;;;;;;3.92;0.45;;;;;;;9.99;100.00;98438.19;5163909;28;20030;-77
2023/11/02 04:20:36;;;;;;;0.95;0.30;;;;;;;10.00;100.00;98438.06;5166464;28;20270;-78
2023/11/02 04:23:08;;;;;;;3.00;0.52;;;;;;;9.93;100.00;98443.78;5167041;28;20045;-76
2023/11/02 04:25:38;;;;;;;4.78;0.60;;;;;;;9.99;100.00;98430.34;5164903;28;20545;-75
2023/11/02 04:28:08;;;;;;;1.80;0.50;;;;;;;10.02;100.00;98420.56;5169283;28;20042;-78
2023/11/02 04:30:38;;;;;;;1.55;0.52;;;;;;;10.00;100.00;98418.97;5165348;28;20025;-77
2023/11/02 04:33:09;;;;;;;3.47;0.52;;;;;;;10.06;100.00;98414.22;5164449;28;20131;-77
2023/11/02 04:35:41;;;;;;;3.97;0.65;;;;;;;10.15;100.00;98400.53;5169491;28;20033;-78
2023/11/02 04:38:11;;;;;;;2.03;0.65;;;;;;;10.17;100.00;98382.97;5165774;28;20113;-79
2023/11/02 04:40:41;;;;;;;1.30;0.45;;;;;;;10.24;100.00;98379.03;5159610;28;20597;-78
2023/11/02 04:43:12;;;;;;;3.78;0.57;;;;;;;10.26;100.00;98371.91;5162182;28;20391;-77
2023/11/02 04:45:43;;;;;;;2.78;0.60;;;;;;;10.29;100.00;98356.03;5166192;28;20053;-76
2023/11/02 04:48:13;;;;;;;5.30;0.60;;;;;;;10.31;100.00;98333.28;5164819;28;20206;-76
2023/11/02 04:50:44;;;;;;;1.88;0.40;;;;;;;10.30;100.00;98343.81;5168328;28;20406;-78
2023/11/02 04:53:14;;;;;;;1.73;0.50;;;;;;;10.31;100.00;98335.06;5167054;28;20036;-76
2023/11/02 04:55:45;;;;;;;2.53;0.52;;;;;;;10.32;100.00;98323.69;5164885;28;20554;-76
2023/11/02 04:58:15;;;;;;;1.25;0.40;;;;;;;10.38;100.00;98304.97;5161315;28;20209;-76
2023/11/02 05:00:45;;;;;;;3.60;0.50;;;;;;;10.31;100.00;98283.69;5162432;28;20111;-77
2023/11/02 05:03:15;;;;;;;2.55;0.40;;;;;;;10.32;100.00;98274.91;5173248;28;20561;-76
2023/11/02 05:05:46;;;;;;;2.92;0.60;;;;;;;10.36;100.00;98288.59;5170350;28;20036;-77
2023/11/02 05:08:16;;;;;;;3.72;0.70;;;;;;;10.30;100.00;98295.06;5171429;28;20252;-77
2023/11/02 05:10:46;;;;;;;1.77;0.50;;;;;;;10.30;100.00;98289.00;5169057;28;20060;-77
2023/11/02 05:13:17;;;;;;;8.52;0.70;;;;;;;10.33;100.00;98286.19;5170981;28;20118;-77
2023/11/02 05:15:47;;;;;;;2.78;0.50;;;;;;;10.32;100.00;98287.13;5168002;28;20022;-78
2023/11/02 05:18:17;;;;;;;1.83;0.60;;;;;;;10.27;100.00;98274.41;5166077;28;20046;-77
2023/11/02 05:20:47;;;;;;;2.72;0.70;;;;;;;10.33;100.00;98278.34;5163596;28;20467;-74
2023/11/02 05:23:18;;;;;;;2.17;0.45;;;;;;;10.44;100.00;98266.19;5160112;28;20099;-77
2023/11/02 05:25:48;;;;;;;2.65;0.50;;;;;;;10.40;100.00;98266.53;5163827;28;20092;-75
2023/11/02 05:28:18;;;;;;;4.18;0.75;;;;;;;10.40;100.00;98269.13;5165493;28;20036;-78
2023/11/02 05:30:49;;;;;;;1.10;0.40;;;;;;;10.47;100.00;98271.19;5164238;28;20380;-76
2023/11/02 05:33:19;;;;;;;4.22;0.57;;;;;;;10.45;100.00;98267.88;5168873;28;20030;-76
2023/11/02 05:35:49;;;;;;;3.63;0.47;;;;;;;10.46;100.00;98263.47;5169135;28;20099;-76
2023/11/02 05:38:20;;;;;;;4.63;0.55;;;;;;;10.46;100.00;98266.06;5169409;28;20166;-77
2023/11/02 05:40:50;;;;;;;4.03;1.30;;;;;;;10.41;100.00;98271.66;5166596;28;20357;-77
2023/11/02 05:43:20;;;;;;;2.90;0.50;;;;;;;10.45;100.00;98267.03;5166974;28;20042;-78
2023/11/02 05:45:51;;;;;;;4.75;0.50;;;;;;;10.50;100.00;98275.38;5166211;28;20036;-77
2023/11/02 05:48:21;;;;;;;2.00;0.40;;;;;;;10.42;100.00;98277.69;5170330;28;20061;-77
2023/11/02 05:50:52;;;;;;;4.18;0.60;;;;;;;10.32;100.00;98271.47;5166527;28;20083;-77
2023/11/02 05:53:22;;;;;;;3.22;0.50;;;;;;;10.30;100.00;98262.88;5169729;28;20386;-78
2023/11/02 05:55:52;;;;;;;1.85;0.40;;;;;;;10.35;100.00;98255.59;5166983;28;20099;-77
2023/11/02 05:58:22;;;;;;;2.17;0.90;;;;;;;10.31;100.00;98260.19;5165703;28;20476;-77
2023/11/02 06:00:54;;;;;;;2.05;0.50;;;;;;;10.28;100.00;98256.94;5165323;28;20022;-78
2023/11/02 06:03:25;;;;;;;2.38;0.60;;;;;;;10.35;100.00;98245.97;5170896;28;20022;-73
2023/11/02 06:05:55;;;;;;;2.00;0.50;;;;;;;10.38;100.00;98242.31;5168087;28;20033;-75
2023/11/02 06:08:25;;;;;;;2.08;0.45;;;;;;;10.42;100.00;98235.91;5161892;28;20031;-76
2023/11/02 06:10:56;;;;;;;5.45;0.80;;;;;;;10.45;100.00;98246.13;5167352;28;20030;-76
2023/11/02 06:13:26;;;;;;;5.22;0.93;;;;;;;10.47;100.00;98242.47;5171800;28;20384;-76
2023/11/02 06:15:56;;;;;;;1.00;0.50;;;;;;;10.57;100.00;98230.44;5164802;28;20081;-76
2023/11/02 06:18:27;;;;;;;2.65;0.57;;;;;;;10.57;100.00;98217.38;5169203;28;20446;-77
2023/11/02 06:20:57;;;;;;;2.25;0.50;;;;;;;10.59;100.00;98222.47;5163478;28;20041;-78
2023/11/02 06:23:27;;;;;;;4.80;0.60;;;;;;;10.71;100.00;98213.75;5167721;28;20403;-77
2023/11/02 06:25:58;;;;;;;3.08;0.68;;;;;;;10.77;100.00;98221.13;5163037;28;20037;-76
2023/11/02 06:28:28;;;;;;;3.10;0.55;;;;;;;10.80;100.00;98213.06;5167516;28;20030;-76
2023/11/02 06:30:59;;;;;;;2.83;0.65;;;;;;;10.77;100.00;98205.44;5164132;28;20034;-76
2023/11/02 06:33:31;;;;;;;2.40;0.60;;;;;;;10.80;100.00;98197.38;5168953;28;20168;-77
2023/11/02 06:36:01;;;;;;;2.47;0.38;;;;;;;10.85;100.00;98193.47;5158417;28;20651;-77
2023/11/02 06:38:33;;;;;;;2.42;0.73;;;;;;;10.81;100.00;98185.97;5161240;28;20029;-76
2023/11/02 06:41:04;;;;;;;1.67;0.40;;;;;;;10.81;100.00;98185.97;5162513;28;20088;-73
2023/11/02 06:43:34;;;;;;;3.40;0.60;;;;;;;10.90;100.00;98170.47;5169389;28;20025;-78
2023/11/02 06:46:06;;;;;;;3.80;0.68;;;;;;;10.91;100.00;98158.22;5166231;28;20385;-77
2023/11/02 06:48:36;;;;;;;3.88;0.50;;;;;;;10.88;100.00;98171.53;5167882;28;20120;-76
2023/11/02 06:51:08;;;;;;;6.25;0.82;;;;;;;10.86;100.00;98153.34;5169274;28;20113;-76
2023/11/02 06:53:38;;;;;;;4.55;0.68;;;;;;;10.85;100.00;98145.63;5164039;28;20032;-76
2023/11/02 06:56:08;;;;;;;1.83;0.70;;;;;;;10.83;100.00;98132.69;5163283;28;20411;-77
2023/11/02 06:58:38;;;;;;;3.17;0.60;;;;;;;10.85;100.00;98137.81;5158644;28;20027;-76
2023/11/02 07:01:09;;;;;;;5.05;0.73;;;;;;;10.91;100.00;98145.16;5164359;28;20438;-76
2023/11/02 07:03:39;;;;;;;3.15;0.63;;;;;;;10.96;100.00;98138.66;5164186;28;20045;-76
2023/11/02 07:06:10;;;;;;;1.20;0.50;;;;;;;10.89;100.00;98121.75;5161496;28;20034;-77
2023/11/02 07:08:40;;;;;;;2.78;0.60;;;;;;;10.95;100.00;98105.63;5162467;28;20177;-77
2023/11/02 07:11:11;;;;;;;2.05;0.50;;;;;;;10.93;100.00;98089.25;5161158;28;20030;-77
2023/11/02 07:13:41;;;;;;;3.75;0.68;;;;;;;10.92;100.00;98084.13;5163486;28;20030;-72
2023/11/02 07:16:11;;;;;;;3.92;0.60;;;;;;;11.02;100.00;98065.84;5162413;28;20026;-76
2023/11/02 07:18:41;;;;;;;3.60;0.57;;;;;;;11.01;100.00;98052.06;5164689;28;20028;-76
2023/11/02 07:21:12;;;;;;;2.47;0.40;;;;;;;10.95;100.00;98042.91;5166852;28;20037;-74
2023/11/02 07:23:42;;;;;;;2.95;0.73;;;;;;;11.06;100.00;98040.28;5193239;22;20016;-72
2023/11/02 07:26:12;;;;;;;3.42;1.05;;;;;;;11.10;100.00;98039.13;5180786;28;20037;-71
2023/11/02 07:28:43;;;;;;;1.90;0.50;;;;;;;11.08;100.00;98023.53;5200481;28;20822;-71
2023/11/02 07:31:13;;;;;;;2.78;0.52;;;;;;;11.04;100.00;98016.91;5184221;28;20036;-71
2023/11/02 07:33:44;;;;;;;2.35;0.68;;;;;;;11.18;100.00;98034.97;5188057;28;20037;-71
2023/11/02 07:36:14;;;;;;;1.65;0.50;;;;;;;11.25;100.00;98020.44;5184304;28;20040;-71
2023/11/02 07:38:45;;;;;;;2.72;0.55;;;;;;;11.33;100.00;98010.22;5185452;28;20442;-72
2023/11/02 07:41:18;;;;;;;1.33;0.50;;;;;;;11.35;99.81;98005.69;5187259;28;20026;-72
2023/11/02 07:43:48;;;;;;;2.25;0.60;;;;;;;11.40;99.81;97992.22;5182623;28;20112;-71
2023/11/02 07:46:19;;;;;;;2.95;0.90;;;;;;;11.47;99.76;97998.66;5184933;28;20103;-71
2023/11/02 07:48:49;;;;;;;5.10;0.70;;;;;;;11.41;99.19;97988.69;5186279;28;20041;-72
2023/11/02 07:51:19;;;;;;;4.32;0.80;;;;;;;11.39;99.12;97969.66;5183941;28;20113;-71
2023/11/02 07:53:50;;;;;;;2.75;0.80;;;;;;;11.34;99.33;97949.13;5182565;28;20034;-71
2023/11/02 07:56:20;;;;;;;0.63;0.40;;;;;;;11.32;99.58;97917.06;5185120;28;20398;-71
2023/11/02 07:58:51;;;;;;;2.50;0.52;;;;;;;11.36;99.11;97928.06;5184347;28;20022;-71
2023/11/02 08:01:24;;;;;;;8.20;0.60;;;;;;;11.41;98.30;97946.84;5183215;28;20037;-71
2023/11/02 08:03:54;;;;;;;3.55;0.60;;;;;;;11.41;98.87;97918.09;5185254;28;20573;-71
2023/11/02 08:06:24;;;;;;;1.92;0.50;;;;;;;11.40;99.17;97919.03;5187959;28;20038;-71
2023/11/02 08:08:55;;;;;;;3.83;0.70;;;;;;;11.42;98.02;97925.81;5188256;28;20034;-72
2023/11/02 08:11:25;;;;;;;3.63;0.63;;;;;;;11.47;98.85;97918.41;5187165;28;20514;-72
2023/11/02 08:13:56;;;;;;;5.45;0.70;;;;;;;11.51;97.39;97885.84;5183299;28;20029;-71
2023/11/02 08:16:26;;;;;;;4.05;0.60;;;;;;;11.51;97.18;97878.00;5185660;28;20033;-72
2023/11/02 08:18:57;;;;;;;2.10;0.63;;;;;;;11.54;98.23;97896.03;5189329;28;20040;-71
2023/11/02 08:21:27;;;;;;;2.38;0.60;;;;;;;11.53;96.91;97878.69;5188783;28;20021;-71
2023/11/02 08:23:57;;;;;;;2.17;0.50;;;;;;;11.58;97.41;97880.97;5183007;28;20248;-72
2023/11/02 08:26:27;;;;;;;2.85;0.52;;;;;;;11.58;96.74;97871.31;5187245;28;20025;-71
2023/11/02 08:28:58;;;;;;;6.05;0.75;;;;;;;11.62;96.56;97880.56;5185890;28;20054;-71
2023/11/02 08:31:29;;;;;;;2.08;0.40;;;;;;;11.60;96.72;97886.91;5182217;28;20467;-71
2023/11/02 08:33:59;;;;;;;3.55;0.50;;;;;;;11.62;96.45;97870.09;5175390;28;20034;-71
2023/11/02 08:36:34;;;;;;;2.25;0.85;;;;;;;11.63;96.83;97853.44;5182720;28;20032;-71
2023/11/02 08:39:04;;;;;;;1.85;0.40;;;;;;;11.72;94.71;97816.06;5182163;28;20426;-71
2023/11/02 08:41:35;;;;;;;2.38;0.65;;;;;;;11.76;94.53;97812.22;5184147;28;20032;-71
2023/11/02 08:44:06;;;;;;;1.67;0.60;;;;;;;11.81;93.95;97815.28;5181426;28;20450;-72
2023/11/02 08:46:36;;;;;;;1.15;0.50;;;;;;;11.86;94.30;97814.91;5186239;28;20155;-71
2023/11/02 08:49:06;;;;;;;5.22;0.70;;;;;;;11.85;95.32;97801.00;5180651;28;20076;-71
2023/11/02 08:51:37;;;;;;;1.92;0.50;;;;;;;11.81;95.23;97794.34;5185552;28;20034;-71
2023/11/02 08:54:07;;;;;;;3.33;0.60;;;;;;;11.75;95.72;97787.03;5183644;28;20452;-71
2023/11/02 08:56:37;;;;;;;1.80;0.60;;;;;;;11.81;95.35;97783.88;5183188;28;20507;-71
2023/11/02 08:59:07;;;;;;;1.88;0.50;;;;;;;11.82;94.76;97769.84;5183491;28;20317;-71
2023/11/02 09:01:38;;;;;;;3.05;0.50;;;;;;;11.82;93.86;97751.53;5185919;28;20042;-71
2023/11/02 09:04:08;;;;;;;2.83;0.50;;;;;;;11.90;94.08;97756.09;5185443;28;20026;-71
2023/11/02 09:06:38;;;;;;;3.72;0.65;;;;;;;11.92;93.42;97756.84;5184842;28;20113;-71
2023/11/02 09:09:11;;;;;;;2.92;0.60;;;;;;;11.97;92.43;97746.78;5185690;28;20455;-71
2023/11/02 09:11:43;;;;;;;4.97;0.60;;;;;;;12.04;93.53;97756.59;5181954;28;20029;-71
2023/11/02 09:14:15;;;;;;;3.33;0.60;;;;;;;12.02;93.19;97739.38;5183040;28;20518;-71
2023/11/02 09:16:48;;;;;;;1.30;0.40;;;;;;;12.00;93.13;97718.56;5184873;28;20043;-72
2023/11/02 09:19:20;;;;;;;3.80;0.50;;;;;;;12.11;92.23;97707.16;5182491;28;20464;-72
2023/11/02 09:21:51;;;;;;;1.92;0.57;;;;;;;12.18;90.96;97697.81;5178974;28;20098;-71
2023/11/02 09:24:23;;;;;;;4.15;0.68;;;;;;;12.17;90.11;97698.78;5181418;28;20033;-71
2023/11/02 09:26:57;;;;;;;3.38;0.30;;;;;;;12.22;90.71;97720.97;5187276;28;20038;-72
2023/11/02 09:29:28;;;;;;;2.75;0.50;;;;;;;12.23;89.59;97748.81;5181987;28;20034;-72
2023/11/02 09:32:00;;;;;;;1.58;0.32;;;;;;;12.34;88.56;97777.50;5178192;28;20029;-72
2023/11/02 09:34:33;;;;;;;4.45;0.50;;;;;;;12.31;89.96;97756.81;5184471;28;20029;-72
2023/11/02 09:37:05;;;;;;;0.57;0.20;;;;;;;12.26;89.66;97722.34;5183810;28;20030;-71
2023/11/02 09:39:39;;;;;;;3.60;0.40;;;;;;;12.31;88.51;97699.19;5185743;28;20034;-72
2023/11/02 09:42:12;;;;;;;1.98;0.45;;;;;;;12.39;88.38;97735.19;5185089;28;20434;-72
2023/11/02 09:44:44;;;;;;;1.55;0.20;;;;;;;12.38;89.63;97733.53;5185091;28;20054;-72
2023/11/02 09:47:15;;;;;;;0.60;0.30;;;;;;;12.44;89.64;97746.91;5185450;28;20096;-72
2023/11/02 09:49:46;;;;;;;1.17;0.40;;;;;;;12.48;89.80;97748.31;5186115;28;20083;-71
2023/11/02 09:52:19;;;;;;;1.40;0.30;;;;;;;12.54;89.13;97739.91;5188399;28;20017;-71
2023/11/02 09:54:51;;;;;;;2.45;0.40;;;;;;;12.65;86.91;97724.06;5189410;28;20033;-72
2023/11/02 09:57:22;;;;;;;1.20;0.32;;;;;;;12.73;86.06;97690.16;5186897;28;20029;-71
2023/11/02 09:59:55;;;;;;;5.32;0.65;;;;;;;12.84;84.94;97670.84;5189056;28;20030;-72
2023/11/02 10:02:26;;;;;;;1.45;0.30;;;;;;;12.89;84.61;97648.50;5188089;28;20539;-72
2023/11/02 10:04:59;;;;;;;1.70;0.40;;;;;;;12.91;84.16;97652.59;5185817;28;20033;-72
2023/11/02 10:07:30;;;;;;;1.60;0.40;;;;;;;12.96;84.26;97702.03;5184153;28;20075;-71
2023/11/02 10:10:05;;;;;;;1.73;0.30;;;;;;;12.93;85.31;97710.16;5187721;28;20423;-71
2023/11/02 10:12:36;;;;;;;2.47;0.52;;;;;;;12.78;86.57;97714.13;5188534;28;20033;-71
2023/11/02 10:15:11;;;;;;;0.40;0.20;;;;;;;12.88;86.82;97735.94;5187912;28;20030;-71
2023/11/02 10:17:43;;;;;;;2.27;0.40;;;;;;;12.76;89.21;97742.28;5186292;28;20030;-73
2023/11/02 10:20:17;;;;;;;2.80;0.38;;;;;;;12.84;85.95;97726.69;5193148;28;20028;-72
2023/11/02 10:23:14;;;;;;;1.05;0.30;;;;;;;13.10;84.92;97701.59;5186294;28;20068;-72
2023/11/02 10:25:45;;;;;;;1.27;0.30;;;;;;;13.27;83.21;97672.84;5182452;28;20081;-72
2023/11/02 10:28:16;;;;;;;2.28;0.40;;;;;;;13.42;80.70;97662.75;5188041;28;20038;-72
2023/11/02 10:30:56;;;;;;;1.13;0.35;;;;;;;13.53;80.41;97665.19;5182156;28;20392;-72
2023/11/02 10:33:30;;;;;;;0.45;0.20;;;;;;;13.64;79.31;97680.75;5185684;28;20037;-71
2023/11/02 10:36:01;;;;;;;3.28;0.38;;;;;;;13.75;79.20;97701.56;5183804;28;20431;-72
2023/11/02 10:38:33;;;;;;;0.43;0.20;;;;;;;13.62;80.72;97706.31;5187413;28;20075;-73
2023/11/02 10:41:07;;;;;;;0.75;0.47;;;;;;;13.55;82.25;97708.69;5188922;28;20431;-73
2023/11/02 10:43:42;;;;;;;3.33;0.45;;;;;;;13.57;83.32;97713.78;5188780;28;20071;-72
2023/11/02 10:46:16;;;;;;;1.70;0.55;;;;;;;13.41;84.20;97696.00;5175981;28;20398;-73
2023/11/02 10:48:53;;;;;;;1.00;0.30;;;;;;;13.36;85.42;97695.63;5182727;28;20122;-73
2023/11/02 10:51:29;;;;;;;1.83;0.30;;;;;;;13.27;86.39;97708.75;5187029;28;20029;-72
2023/11/02 10:54:42;;;;;;;2.70;0.40;;;;;;;13.31;86.56;97702.25;5186055;28;20021;-72
2023/11/02 10:57:17;;;;;;;1.58;0.40;;;;;;;13.10;86.23;97681.44;5180728;28;20487;-72
2023/11/02 10:59:49;;;;;;;1.90;0.40;;;;;;;13.06;88.30;97672.22;5185154;28;20510;-73
2023/11/02 11:02:20;;;;;;;2.67;0.55;;;;;;;13.06;86.89;97664.34;5189138;28;20029;-72
2023/11/02 11:04:53;;;;;;;0.93;0.30;;;;;;;12.99;88.49;97670.28;5187169;28;20153;-73
2023/11/02 11:07:24;;;;;;;5.72;1.23;;;;;;;12.97;89.45;97666.97;5172925;28;20038;-72
2023/11/02 11:09:56;;;;;;;0.70;0.30;;;;;;;12.98;90.53;97667.81;5191980;28;20033;-72
2023/11/02 11:12:27;;;;;;;1.90;0.50;;;;;;;13.00;90.06;97640.47;5190698;28;20032;-72
2023/11/02 11:14:59;;;;;;;0.22;0.20;;;;;;;13.24;85.47;97630.38;5190498;28;20395;-72
2023/11/02 11:17:30;;;;;;;1.50;0.22;;;;;;;13.40;85.18;97623.53;5185298;28;20029;-72
2023/11/02 11:20:05;;;;;;;1.25;0.40;;;;;;;13.65;83.58;97616.78;5186184;28;20021;-72
2023/11/02 11:22:39;;;;;;;2.75;0.32;;;;;;;13.68;83.23;97598.13;5178843;28;20037;-72
2023/11/02 11:25:11;;;;;;;0.60;0.30;;;;;;;13.85;82.55;97602.59;5185827;28;20040;-72
2023/11/02 11:27:43;;;;;;;1.02;0.35;;;;;;;13.97;82.80;97604.91;5188927;28;20036;-73
2023/11/02 11:30:20;;;;;;;2.17;0.55;;;;;;;13.98;82.85;97597.81;5189419;28;20026;-72
2023/11/02 11:32:52;;;;;;;0.95;0.38;;;;;;;13.85;83.83;97590.31;5184770;28;20112;-72
2023/11/02 11:35:23;;;;;;;2.00;0.20;;;;;;;13.97;83.70;97588.31;5184084;28;20056;-72
2023/11/02 11:40:31;;;;;;;0.88;0.20;;;;;;;13.87;84.32;97621.66;5191302;28;20025;-72
2023/11/02 11:43:18;;;;;;;0.55;0.30;;;;;;;13.90;83.36;97592.50;5182105;28;20092;-71
2023/11/02 11:45:51;;;;;;;2.17;0.30;;;;;;;13.95;83.73;97582.38;5187972;28;20491;-72
2023/11/02 11:48:42;;;;;;;3.03;0.40;;;;;;;14.04;83.61;97587.56;5186429;28;20570;-72
2023/11/02 11:51:39;;;;;;;1.73;0.20;;;;;;;14.09;83.80;97597.63;5184024;28;20033;-72
2023/11/02 11:54:14;;;;;;;0.80;0.30;;;;;;;14.17;84.07;97598.56;5189481;28;20034;-72
2023/11/02 11:56:46;;;;;;;1.55;0.40;;;;;;;14.25;83.13;97575.00;5182284;28;20124;-72
2023/11/02 11:59:18;;;;;;;2.00;0.30;;;;;;;14.30;82.91;97578.00;5187892;28;20088;-72
2023/11/02 12:02:35;;;;;;;1.13;0.40;;;;;;;14.47;82.39;97564.03;5182319;28;20060;-72
2023/11/02 12:05:06;;;;;;;1.75;0.45;;;;;;;14.44;82.76;97559.06;5169420;28;20046;-72
2023/11/02 12:07:38;;;;;;;2.33;0.40;;;;;;;14.43;83.05;97567.13;5187716;28;20040;-72